Fort Smith, AR

12:21 PM CDT on May 06, 2015 (GMT -0500)
HWY. 255 | | Change Station
CLOSE
Current Station
Personal Weather Station
Location: Lavaca, AR
Elevation: 389 ft
Nearby Weather Stations

Elev 389 ft 35.34 °N, 94.21 °W | Updated 2 seconds ago

Clear
Clear
80.4 °F
Feels Like 82 °F
N
8.1
Wind Variable Wind from East
Gusts 8.1 mph

Today
High -- | Low -- °F
--% Chance of Precip.
Yesterday
High -- | Low -- °F
Precip. -- in
6:21 AM 8:07 PM
Waning Gibbous, 93% visible
Pressure 30.01 in
Visibility 10.0 miles
Clouds Clear
Heat Index 82 °F
Dew Point 66 °F
Humidity 61%
Rainfall 0.11 in
Snow Depth Not available.
UV 10 out of 12
Pollen 1.90 out of 12
Air Quality Not available.
Flu Activity No Activity
METAR KFSM 061653Z 14010G18KT 10SM CLR 24/12 A3002 RMK AO2 SLP162 T02390122

More Conditions Fewer Conditions

Pressure 30.01 in
Visibility 10.0 miles
Clouds Clear
Heat Index 82 °F
Dew Point 66 °F
Humidity 61%
Rainfall 0.11 in
Snow Depth Not available.
UV 10 out of 12
Pollen 1.90 out of 12
Air Quality Not available.
Flu Activity No Activity
METAR KFSM 061653Z 14010G18KT 10SM CLR 24/12 A3002 RMK AO2 SLP162 T02390122

More Conditions Fewer Conditions

Nowcast | as of 11:58 am CDT on May 6, 2015

At noon...scattered showers were confined to portions of Craig County in northeast Oklahoma and far northeast Carroll County in Arkansas. The showers were moving north-northeast at 30 miles an hour. Through 130 PM... scattered showers will end in Craig County and Carroll counties. The remainder of northeast Oklahoma and northwest Arkansas will remain rain free.

×

10-Day Weather Forecast

Almanac

Astronomy

May. 06, 2015 Rise Set
Actual Time
Civil Twilight
Nautical Twilight
Astronomical Twilight
Moon
Length of Visible Light
Length of Day
Tomorrow will be .
, % of the Moon is Illuminated

Today's Extremes

State Highs State Lows

Community

WunderPhotos

Upload Photos

1,818,956 photos uploaded!

WunderBlogs® & News

Nearby

Air Quality

  Air Quality AQ Index Pollutant
Not available.

Snow Depth

Station Depth Elevation

Earthquake Activity

City Distance Mag. Time & Date
Minimum magnitude displayed is 2.5.

Coastal Water Temperatures

Place Temperature

Stations

Nearby Weather Stations

Station Location Temp. Windchill Dew Point Humidity Wind Precip. Elev Updated Type